Details From BGKK - Kulusuk
To BGBW - Narsarsuaq
Flight Number -
Tags generated
Created
Modified
Stats Distance 353 nm / 654 km
Max Altitude 34,000 ft / 10,363 m
Waypoints 4
Social Downloads 2
Likes 0
Share VATSIM

Download

Looking for another format? Having issues loading an existing format? Contact us
Advertisement - Login to hide

Notes

Basic altitude profile: - Ascent Rate: 1000ft/min - Ascent Speed: 160kts - Cruise Altitude: 9000ft - Cruise Speed: 190kts - Descent Rate: 1000ft/min - Descent Speed: 180kts Options: - Use NATs: yes - Use PACOTS: yes - Use low airways: no - Use high airways: no

Route

BGKK 6400N04000W 6200N04500W BGBW

ID Type Via Altitude Latitude Longitude Leg Dist Tot Dist Heading (true) Name
O BGKK APT - 0 ft / 0 m 65.57361˚ -37.12361˚ - 0 nm - Kulusuk
6400N04000W LATLON - 34,000 ft / 10,363 m 64.00000˚ -40.00000˚ 119 nm 119 nm 219° / 217° -
6200N04500W LATLON - 10,100 ft / 3,078 m 62.00000˚ -45.00000˚ 181 nm 301 nm 231° / 226° -
O BGBW APT - 0 ft / 0 m 61.16052˚ -45.42598˚ 51 nm 353 nm 194° / 193° Narsarsuaq

Altitude Profile

Advertisement - Login to hide

Weather


0- 5 10 15 20 25 30 35+ Temperature / ° C

Clouds and Precipitation
Forecast for 2017-12-14 18:00 UTC. Updated 2 hours ago

Ground ~20,000 ft ~40,000 ft Winds

BGKK

Details ICAO BGKK
Name Kulusuk
Region Greenland
Timezone America/Godthab (UTC-3.0)
Stats Elevation 114 ft / 35 m (AMSL)
Location 65.573608° -37.123608°
Runways 1
Magnetic Variation 22.319° W

METAR

BGKK 141850Z 09018KT 9999 SCT025 BKN060 M02/M08 Q1015

Decode

TAF

Not found

Departure Runways

ID Width Length Bearing (true) Bearing (mag) Surface Threshold Offset Overrun Length
11 98 ft / 30 m 3,956 ft / 1,206 m 83.99° 106.31° Gravel 0 ft / 0 m 0 ft / 0 m
29 98 ft / 30 m 3,956 ft / 1,206 m 264.01° 286.33° Gravel 0 ft / 0 m 0 ft / 0 m

BGBW

Details ICAO BGBW (UAK)
Name Narsarsuaq
Region Greenland
Timezone America/Godthab (UTC-3.0)
Stats Elevation 112 ft / 34 m (AMSL)
Location 61.160516° -45.425976°
Runways 1
Magnetic Variation 22.905° W

METAR

BGBW 141850Z 05002KT 9999 SCT150 BKN180 M07/M15 Q1001

Decode

TAF

Not found

Destination Runways

ID Width Length Bearing (true) Bearing (mag) Surface Threshold Offset Overrun Length
07 148 ft / 45 m 5,921 ft / 1,805 m 40.57° 63.48° Concrete 0 ft / 0 m 0 ft / 0 m
25 148 ft / 45 m 5,921 ft / 1,805 m 220.58° 243.49° Concrete 0 ft / 0 m 279 ft / 85 m

Popular Alternatives